Time;durP1;ratioP1;P1;durP2;ratioP2;P2;SDS_P1;SDS_P2;PMS_P1;PMS_P2;Temp;Humidity;BMP_temperature;BMP_pressure;BME280_temperature;BME280_humidity;BME280_pressure;Samples;Min_cycle;Max_cycle;Signal;HPM_P1;HPM_P2
2022/10/14 00:00:55;;;;;;;11.35;7.57;;;12.00;99.90;;;;;;5035582;28;20045;-58
2022/10/14 00:03:23;;;;;;;12.27;6.60;;;12.00;99.90;;;;;;5035892;28;20037;-59
2022/10/14 00:05:50;;;;;;;11.23;6.88;;;12.00;99.90;;;;;;5035250;28;20107;-56
2022/10/14 00:08:16;;;;;;;9.05;6.55;;;12.00;99.90;;;;;;5035361;28;20046;-56
2022/10/14 00:10:43;;;;;;;10.60;6.85;;;12.00;99.90;;;;;;5035713;28;20048;-59
2022/10/14 00:13:10;;;;;;;9.70;6.32;;;12.00;99.90;;;;;;5035508;28;20045;-57
2022/10/14 00:15:36;;;;;;;8.77;6.57;;;12.00;99.90;;;;;;5035209;28;20553;-57
2022/10/14 00:18:03;;;;;;;8.20;6.53;;;12.00;99.90;;;;;;5035175;28;20083;-57
2022/10/14 00:20:30;;;;;;;9.98;6.95;;;12.00;99.90;;;;;;5035170;28;20568;-57
2022/10/14 00:22:57;;;;;;;10.05;6.68;;;12.00;99.90;;;;;;5017333;28;20049;-59
2022/10/14 00:25:25;;;;;;;8.90;6.68;;;12.00;99.90;;;;;;5017354;28;20045;-55
2022/10/14 00:27:51;;;;;;;8.63;6.45;;;12.00;99.90;;;;;;5017281;28;20046;-59
2022/10/14 00:30:19;;;;;;;11.50;6.22;;;11.90;99.90;;;;;;5035100;28;20060;-57
2022/10/14 00:32:46;;;;;;;7.18;5.65;;;11.90;99.90;;;;;;5017171;28;20091;-57
2022/10/14 00:35:13;;;;;;;10.35;6.10;;;11.90;99.90;;;;;;5034682;28;20064;-56
2022/10/14 00:37:39;;;;;;;9.82;6.45;;;11.90;99.90;;;;;;5017221;28;20041;-58
2022/10/14 00:40:06;;;;;;;7.82;6.00;;;11.90;99.90;;;;;;5035167;28;20465;-58
2022/10/14 00:42:33;;;;;;;10.20;6.25;;;12.00;99.90;;;;;;5017365;28;20045;-59
2022/10/14 00:44:59;;;;;;;9.77;6.38;;;12.00;99.90;;;;;;5016755;28;20081;-58
2022/10/14 00:47:26;;;;;;;7.75;6.30;;;12.00;99.90;;;;;;5016851;28;20041;-59
2022/10/14 00:49:53;;;;;;;9.57;6.75;;;11.90;99.90;;;;;;5034313;28;20464;-58
2022/10/14 00:52:20;;;;;;;8.52;5.85;;;12.00;99.90;;;;;;5034477;28;20141;-60
2022/10/14 00:54:50;;;;;;;8.50;6.63;;;11.90;99.90;;;;;;5034627;28;20041;-57
2022/10/14 00:57:17;;;;;;;10.35;6.93;;;12.00;99.90;;;;;;5034537;28;20129;-58
2022/10/14 00:59:44;;;;;;;10.88;7.43;;;12.00;99.90;;;;;;5016556;28;20153;-58
2022/10/14 01:02:12;;;;;;;10.20;7.70;;;12.00;99.90;;;;;;5034417;28;20504;-56
2022/10/14 01:04:39;;;;;;;11.68;7.53;;;12.00;99.90;;;;;;5034226;28;20073;-58
2022/10/14 01:07:07;;;;;;;9.30;8.00;;;12.00;99.90;;;;;;5033238;28;20393;-58
2022/10/14 01:09:33;;;;;;;12.98;7.72;;;12.00;99.90;;;;;;5016843;28;20045;-57
2022/10/14 01:12:00;;;;;;;8.82;7.93;;;12.00;99.90;;;;;;5033982;28;20393;-58
2022/10/14 01:14:48;;;;;;;13.00;8.20;;;12.00;99.90;;;;;;5034303;28;20045;-56
2022/10/14 01:17:14;;;;;;;12.65;8.52;;;12.00;99.90;;;;;;5033960;28;20070;-55
2022/10/14 01:19:41;;;;;;;11.88;8.52;;;12.00;99.90;;;;;;5034326;28;20045;-58
2022/10/14 01:22:09;;;;;;;9.55;8.10;;;12.00;99.90;;;;;;5034408;28;20040;-59
2022/10/14 01:24:38;;;;;;;11.00;6.75;;;12.00;99.90;;;;;;5033817;28;20033;-57
2022/10/14 01:27:05;;;;;;;9.60;7.18;;;12.00;99.90;;;;;;5034421;28;20568;-60
2022/10/14 01:29:32;;;;;;;8.38;6.95;;;11.90;99.90;;;;;;5016070;28;20053;-58
2022/10/14 01:31:58;;;;;;;10.13;6.60;;;11.90;99.90;;;;;;5034352;28;20045;-59
2022/10/14 01:34:25;;;;;;;8.70;6.90;;;11.90;99.90;;;;;;5034170;28;20049;-59
2022/10/14 01:36:52;;;;;;;8.75;6.65;;;11.90;99.90;;;;;;5033903;28;20435;-60
2022/10/14 01:39:19;;;;;;;10.10;6.97;;;11.90;99.90;;;;;;5016083;28;20050;-59
2022/10/14 01:41:45;;;;;;;11.23;7.60;;;11.90;99.90;;;;;;5033604;28;20507;-56
2022/10/14 01:44:12;;;;;;;15.30;8.18;;;11.90;99.90;;;;;;5035374;28;20052;-57
2022/10/14 01:46:39;;;;;;;11.40;7.63;;;11.80;99.90;;;;;;5017367;28;20041;-53
2022/10/14 01:49:05;;;;;;;13.00;8.43;;;11.80;99.90;;;;;;5032953;28;20488;-56
2022/10/14 01:51:32;;;;;;;12.93;8.25;;;11.80;99.90;;;;;;5033529;28;20061;-58
2022/10/14 01:53:59;;;;;;;13.02;7.55;;;11.70;99.90;;;;;;5033786;28;20076;-59
2022/10/14 01:56:26;;;;;;;11.55;7.30;;;11.70;99.90;;;;;;5032173;28;20049;-59
2022/10/14 01:58:52;;;;;;;11.07;7.68;;;11.70;99.90;;;;;;5015798;28;20045;-58
2022/10/14 02:01:19;;;;;;;11.85;7.40;;;11.70;99.90;;;;;;5015697;28;20045;-56
2022/10/14 02:03:46;;;;;;;13.82;7.82;;;11.60;99.90;;;;;;5033224;28;20041;-58
2022/10/14 02:06:13;;;;;;;14.55;7.78;;;11.60;99.90;;;;;;5015681;28;20042;-58
2022/10/14 02:08:39;;;;;;;10.95;7.43;;;11.60;99.90;;;;;;5016061;28;20052;-57
2022/10/14 02:11:06;;;;;;;13.52;7.07;;;11.60;99.90;;;;;;5015430;28;20045;-56
2022/10/14 02:13:33;;;;;;;10.68;7.43;;;11.60;99.90;;;;;;5015321;28;20046;-58
2022/10/14 02:16:00;;;;;;;10.18;7.32;;;11.60;99.90;;;;;;5032394;28;20087;-57
2022/10/14 02:18:27;;;;;;;10.45;7.32;;;11.60;99.90;;;;;;5016851;28;20038;-61
2022/10/14 02:20:54;;;;;;;8.65;7.18;;;11.60;99.90;;;;;;5019451;28;20037;-58
2022/10/14 02:23:21;;;;;;;12.20;7.63;;;11.60;99.90;;;;;;5019668;28;20137;-56
2022/10/14 02:25:48;;;;;;;11.68;6.70;;;11.60;99.90;;;;;;5037534;28;20477;-57
2022/10/14 02:28:15;;;;;;;10.88;7.20;;;11.60;99.90;;;;;;5037461;28;20152;-59
2022/10/14 02:30:42;;;;;;;9.20;7.13;;;11.60;99.90;;;;;;5019833;28;20424;-59
2022/10/14 02:33:09;;;;;;;10.93;6.97;;;11.60;99.90;;;;;;5037623;28;20047;-60
2022/10/14 02:35:35;;;;;;;8.52;7.38;;;11.60;99.90;;;;;;5037089;28;20370;-57
2022/10/14 02:38:03;;;;;;;12.65;7.30;;;11.60;99.90;;;;;;5019173;28;20049;-58
2022/10/14 02:40:29;;;;;;;10.98;7.28;;;11.60;99.90;;;;;;5035587;28;20584;-59
2022/10/14 02:42:56;;;;;;;13.02;9.02;;;11.60;99.90;;;;;;5019208;28;20056;-59
2022/10/14 02:45:24;;;;;;;14.25;10.45;;;11.60;99.90;;;;;;5035504;28;20041;-59
2022/10/14 02:47:51;;;;;;;11.82;9.35;;;11.60;99.90;;;;;;5036735;28;20038;-57
2022/10/14 02:50:18;;;;;;;13.50;9.60;;;11.70;99.90;;;;;;5037318;28;20041;-57
2022/10/14 02:52:44;;;;;;;12.85;9.95;;;11.60;99.90;;;;;;5036799;28;20037;-60
2022/10/14 02:55:12;;;;;;;15.25;10.57;;;11.70;99.90;;;;;;5035590;28;20049;-57
2022/10/14 02:57:39;;;;;;;15.10;10.40;;;11.70;99.90;;;;;;5035710;28;20050;-58
2022/10/14 03:00:06;;;;;;;12.18;10.23;;;11.70;99.90;;;;;;5019087;28;20144;-53
2022/10/14 03:02:34;;;;;;;15.93;10.75;;;11.70;99.90;;;;;;5019601;28;20493;-54
2022/10/14 03:05:02;;;;;;;12.50;10.75;;;11.70;99.90;;;;;;5018763;28;20576;-59
2022/10/14 03:07:29;;;;;;;15.05;11.30;;;11.70;99.90;;;;;;5036594;28;20044;-56
2022/10/14 03:10:01;;;;;;;17.67;11.98;;;11.80;99.90;;;;;;5019109;28;20117;-56
2022/10/14 03:12:31;;;;;;;14.43;11.15;;;11.80;99.90;;;;;;5018633;28;20103;-59
2022/10/14 03:14:58;;;;;;;14.38;9.35;;;11.70;99.90;;;;;;5034956;28;20065;-61
2022/10/14 03:17:25;;;;;;;14.10;8.20;;;11.70;99.90;;;;;;5035848;28;20049;-59
2022/10/14 03:19:57;;;;;;;13.55;8.65;;;11.70;99.90;;;;;;5019171;28;20111;-58
2022/10/14 03:22:24;;;;;;;13.73;8.63;;;11.70;99.90;;;;;;5018443;28;20055;-60
2022/10/14 03:24:52;;;;;;;10.90;8.52;;;11.60;99.90;;;;;;5034706;28;20479;-59
2022/10/14 03:27:29;;;;;;;16.42;8.77;;;11.60;99.90;;;;;;5035627;28;20046;-58
2022/10/14 03:30:01;;;;;;;11.18;8.60;;;11.70;99.90;;;;;;5013774;28;20054;-59
2022/10/14 03:32:29;;;;;;;14.52;8.45;;;11.60;99.90;;;;;;5015174;28;20057;-59
2022/10/14 03:35:16;;;;;;;13.45;8.38;;;11.60;99.90;;;;;;5016302;28;20046;-60
2022/10/14 03:37:46;;;;;;;12.57;9.90;;;11.60;99.90;;;;;;5015544;28;20030;-58
2022/10/14 03:40:16;;;;;;;11.15;9.57;;;11.60;99.90;;;;;;5015344;28;20057;-59
2022/10/14 03:42:43;;;;;;;15.20;10.18;;;11.60;99.90;;;;;;5016335;28;20120;-57
2022/10/14 03:45:10;;;;;;;11.48;9.35;;;11.70;99.90;;;;;;5014895;28;20060;-58
2022/10/14 03:47:38;;;;;;;14.18;8.98;;;11.60;99.90;;;;;;5014987;28;20495;-60
2022/10/14 03:50:05;;;;;;;12.95;9.27;;;11.70;99.90;;;;;;5015108;28;20389;-58
2022/10/14 03:52:57;;;;;;;9.95;8.10;;;11.70;99.90;;;;;;5014638;28;20038;-59
2022/10/14 03:55:33;;;;;;;10.70;8.65;;;11.70;99.90;;;;;;5014593;28;20497;-59
2022/10/14 03:58:02;;;;;;;12.25;8.80;;;11.70;99.90;;;;;;5014829;28;20049;-58
2022/10/14 04:00:29;;;;;;;11.88;8.80;;;11.70;99.90;;;;;;5031056;28;20046;-60
2022/10/14 04:03:13;;;;;;;13.10;9.02;;;11.70;99.90;;;;;;5015646;28;20034;-58
2022/10/14 04:05:42;;;;;;;10.15;8.10;;;11.70;99.90;;;;;;5014182;28;20100;-58
2022/10/14 04:08:18;;;;;;;11.75;8.40;;;11.70;99.90;;;;;;5014542;28;20096;-55
2022/10/14 04:10:52;;;;;;;11.63;8.88;;;11.70;99.90;;;;;;5031179;28;20049;-59
2022/10/14 04:13:19;;;;;;;11.40;9.20;;;11.70;99.90;;;;;;5014132;28;20041;-56
2022/10/14 04:15:46;;;;;;;13.02;9.60;;;11.70;99.90;;;;;;5015294;28;20081;-60
2022/10/14 04:18:32;;;;;;;10.95;9.55;;;11.70;99.90;;;;;;5000505;28;20108;-59
2022/10/14 04:21:00;;;;;;;16.63;9.98;;;11.70;99.90;;;;;;5014450;28;20398;-59
2022/10/14 04:23:28;;;;;;;15.65;10.48;;;11.70;99.90;;;;;;5014029;28;20046;-58
2022/10/14 04:26:00;;;;;;;14.70;10.52;;;11.70;99.90;;;;;;5014526;28;20054;-59
2022/10/14 04:28:27;;;;;;;12.30;9.75;;;11.70;99.90;;;;;;5016559;28;20098;-61
2022/10/14 04:31:01;;;;;;;14.98;10.02;;;11.60;99.90;;;;;;5017311;28;20048;-55
2022/10/14 04:33:36;;;;;;;14.52;9.85;;;11.60;99.90;;;;;;5034971;28;20404;-58
2022/10/14 04:36:12;;;;;;;14.20;9.90;;;11.70;99.90;;;;;;5033740;28;20091;-59
2022/10/14 04:38:40;;;;;;;16.73;10.40;;;11.70;99.90;;;;;;5017539;28;20069;-58
2022/10/14 04:41:09;;;;;;;14.35;9.85;;;11.60;99.90;;;;;;5016872;28;20045;-55
2022/10/14 04:43:39;;;;;;;15.18;10.30;;;11.70;99.90;;;;;;5017145;28;20037;-57
2022/10/14 04:46:18;;;;;;;16.67;9.88;;;11.60;99.90;;;;;;5017210;28;20041;-55
2022/10/14 04:48:45;;;;;;;12.90;10.57;;;11.70;99.90;;;;;;5033264;28;20049;-57
2022/10/14 04:51:12;;;;;;;16.30;10.68;;;11.70;99.90;;;;;;5034790;28;20049;-59
2022/10/14 04:54:02;;;;;;;14.13;10.43;;;11.70;99.90;;;;;;5023632;28;20079;-60
2022/10/14 04:56:40;;;;;;;20.88;10.95;;;11.70;99.90;;;;;;5016652;28;20053;-58
2022/10/14 04:59:10;;;;;;;13.00;10.38;;;11.70;99.90;;;;;;5016613;28;20038;-58
2022/10/14 05:01:57;;;;;;;14.70;10.60;;;11.70;99.90;;;;;;5033881;28;20061;-60
2022/10/14 05:04:33;;;;;;;16.13;10.57;;;11.60;99.90;;;;;;5034397;28;20049;-59
2022/10/14 05:07:00;;;;;;;17.42;11.25;;;11.70;99.90;;;;;;5016937;28;20045;-59
2022/10/14 05:09:27;;;;;;;14.85;10.27;;;11.60;99.90;;;;;;5017173;28;20055;-55
2022/10/14 05:11:56;;;;;;;11.95;10.43;;;11.60;99.90;;;;;;5016348;28;20038;-59
2022/10/14 05:14:32;;;;;;;15.13;10.25;;;11.60;99.90;;;;;;5016704;28;20538;-58
2022/10/14 05:17:10;;;;;;;12.68;10.30;;;11.60;99.90;;;;;;5016682;28;20045;-59
2022/10/14 05:19:36;;;;;;;14.23;10.77;;;11.60;99.90;;;;;;5016764;28;20052;-58
2022/10/14 05:22:04;;;;;;;15.25;10.63;;;11.70;99.90;;;;;;5016777;28;20485;-58
2022/10/14 05:24:36;;;;;;;12.43;10.55;;;11.70;99.90;;;;;;5016085;28;20049;-56
2022/10/14 05:27:03;;;;;;;14.93;10.38;;;11.70;99.90;;;;;;5016227;28;20050;-56
2022/10/14 05:29:31;;;;;;;13.05;10.40;;;11.70;99.90;;;;;;5016079;28;20072;-56
2022/10/14 05:31:58;;;;;;;14.23;10.43;;;11.70;99.90;;;;;;5016369;28;20115;-60
2022/10/14 05:34:33;;;;;;;13.63;11.07;;;11.70;99.90;;;;;;5016594;28;20048;-58
2022/10/14 05:37:02;;;;;;;16.98;10.10;;;11.70;99.90;;;;;;5016157;28;20457;-59
2022/10/14 05:39:35;;;;;;;13.60;10.35;;;11.70;99.90;;;;;;5015998;28;20049;-56
2022/10/14 05:42:03;;;;;;;12.63;10.63;;;11.80;99.90;;;;;;5016120;28;20504;-58
2022/10/14 05:44:30;;;;;;;14.13;10.20;;;11.80;99.90;;;;;;5016286;28;20136;-59
2022/10/14 05:46:57;;;;;;;14.10;9.90;;;11.80;99.90;;;;;;5016176;28;20132;-61
2022/10/14 05:49:25;;;;;;;15.52;10.15;;;11.70;99.90;;;;;;5032191;28;20045;-60
2022/10/14 05:51:55;;;;;;;15.32;10.65;;;11.80;99.90;;;;;;5015740;28;20041;-59
2022/10/14 05:54:22;;;;;;;13.98;10.35;;;11.80;99.90;;;;;;5015406;28;20052;-58
2022/10/14 05:56:52;;;;;;;13.85;10.15;;;11.70;99.90;;;;;;5016076;28;20037;-59
2022/10/14 05:59:19;;;;;;;13.88;9.65;;;11.80;99.90;;;;;;5016193;28;20046;-57
2022/10/14 06:01:46;;;;;;;13.57;10.25;;;11.70;99.90;;;;;;5016136;28;20056;-60
2022/10/14 06:04:12;;;;;;;13.95;9.38;;;11.70;99.90;;;;;;5015706;28;20046;-58
2022/10/14 06:06:39;;;;;;;15.57;10.45;;;11.70;99.90;;;;;;5033699;28;20060;-58
2022/10/14 06:09:06;;;;;;;17.85;10.13;;;11.70;99.90;;;;;;5015440;28;20119;-58
2022/10/14 06:11:37;;;;;;;12.77;9.48;;;11.70;99.90;;;;;;5015527;28;20057;-58
2022/10/14 06:14:04;;;;;;;14.52;9.93;;;11.70;99.90;;;;;;5033653;28;20048;-58
2022/10/14 06:16:31;;;;;;;16.45;10.32;;;11.70;99.90;;;;;;5031931;28;20050;-60
2022/10/14 06:19:03;;;;;;;14.07;9.77;;;11.60;99.90;;;;;;5015674;28;20049;-59
2022/10/14 06:21:30;;;;;;;13.45;9.25;;;11.70;99.90;;;;;;5031979;28;20056;-59
2022/10/14 06:23:56;;;;;;;13.35;8.35;;;11.70;99.90;;;;;;5033294;28;20045;-59
2022/10/14 06:26:23;;;;;;;13.15;8.73;;;11.70;99.90;;;;;;5033425;28;20485;-59
2022/10/14 06:28:50;;;;;;;12.93;9.52;;;11.70;99.90;;;;;;5032984;28;20156;-60
2022/10/14 06:31:17;;;;;;;10.35;8.20;;;11.70;99.90;;;;;;5015583;28;20041;-60
2022/10/14 06:33:43;;;;;;;11.75;8.20;;;11.70;99.90;;;;;;5032969;28;20080;-59
2022/10/14 06:36:10;;;;;;;17.90;7.63;;;11.80;99.90;;;;;;5015442;28;20076;-60
2022/10/14 06:38:37;;;;;;;11.35;6.60;;;11.80;99.90;;;;;;5033521;28;20037;-59
2022/10/14 06:41:04;;;;;;;15.63;6.68;;;11.80;99.90;;;;;;5033122;28;20065;-58
2022/10/14 06:43:31;;;;;;;13.82;6.68;;;11.90;99.90;;;;;;5032963;28;20076;-60
2022/10/14 06:45:58;;;;;;;16.02;6.32;;;11.90;99.90;;;;;;5033084;28;20069;-57
2022/10/14 06:48:25;;;;;;;13.23;6.03;;;11.90;99.90;;;;;;5032895;28;20038;-57
2022/10/14 06:50:51;;;;;;;13.43;5.57;;;12.00;99.90;;;;;;5032840;28;20088;-60
2022/10/14 06:53:18;;;;;;;10.98;5.75;;;12.00;99.90;;;;;;5033119;28;20083;-59
2022/10/14 06:55:45;;;;;;;14.98;5.88;;;12.00;99.90;;;;;;5033439;28;20084;-59
2022/10/14 06:58:12;;;;;;;11.05;5.70;;;12.00;99.90;;;;;;5033262;28;20037;-58
2022/10/14 07:00:38;;;;;;;15.05;5.30;;;12.00;99.90;;;;;;5033593;28;20076;-60
2022/10/14 07:03:11;;;;;;;12.10;5.78;;;12.10;99.90;;;;;;5033099;28;20064;-58
2022/10/14 07:05:37;;;;;;;14.77;5.55;;;12.10;99.90;;;;;;5035827;28;20061;-60
2022/10/14 07:08:05;;;;;;;13.00;5.70;;;12.10;99.90;;;;;;5019478;28;20532;-60
2022/10/14 07:10:38;;;;;;;15.15;6.03;;;12.10;99.90;;;;;;5019575;28;20048;-58
2022/10/14 07:13:05;;;;;;;10.48;5.43;;;12.20;99.90;;;;;;5037085;28;20041;-57
2022/10/14 07:15:32;;;;;;;13.07;5.13;;;12.20;99.90;;;;;;5036489;28;20045;-55
2022/10/14 07:18:01;;;;;;;11.82;6.03;;;12.30;99.90;;;;;;5036491;28;20092;-60
2022/10/14 07:20:29;;;;;;;13.10;5.45;;;12.30;99.90;;;;;;5038852;28;20088;-59
2022/10/14 07:22:57;;;;;;;14.65;5.57;;;12.30;99.90;;;;;;5042274;28;20054;-60
2022/10/14 07:25:29;;;;;;;13.73;5.78;;;12.30;99.90;;;;;;5019756;28;20072;-60
2022/10/14 07:27:55;;;;;;;12.68;5.50;;;12.40;99.90;;;;;;5034976;28;20045;-57
2022/10/14 07:30:22;;;;;;;14.13;6.25;;;12.40;99.90;;;;;;5035111;28;20084;-57
2022/10/14 07:32:49;;;;;;;13.65;5.38;;;12.40;99.90;;;;;;5035089;28;20695;-59
2022/10/14 07:35:16;;;;;;;14.23;5.57;;;12.50;99.90;;;;;;5034881;28;20108;-58
2022/10/14 07:37:42;;;;;;;18.98;5.53;;;12.50;99.90;;;;;;5017544;28;20550;-59
2022/10/14 07:40:09;;;;;;;15.85;6.13;;;12.60;99.90;;;;;;5036550;28;20068;-59
2022/10/14 07:42:36;;;;;;;29.40;6.93;;;12.60;99.90;;;;;;5036144;28;20405;-60
2022/10/14 07:45:03;;;;;;;32.38;7.50;;;12.70;99.90;;;;;;5035855;28;20037;-59
2022/10/14 07:47:30;;;;;;;17.95;5.72;;;12.80;99.90;;;;;;5036089;28;20128;-60
2022/10/14 07:49:56;;;;;;;12.98;5.57;;;12.80;99.90;;;;;;5036353;28;20129;-59
2022/10/14 07:52:23;;;;;;;33.75;8.00;;;12.90;99.90;;;;;;5035878;28;20083;-60
2022/10/14 07:54:50;;;;;;;31.77;6.85;;;12.90;99.90;;;;;;5036020;28;20084;-57
2022/10/14 07:57:17;;;;;;;13.63;5.55;;;13.00;99.90;;;;;;5035990;28;20426;-60
2022/10/14 07:59:45;;;;;;;21.20;6.45;;;13.10;99.90;;;;;;5036146;28;20070;-59
2022/10/14 08:02:11;;;;;;;18.02;5.68;;;13.10;99.90;;;;;;5018269;28;20068;-59
2022/10/14 08:04:38;;;;;;;17.13;6.10;;;13.20;99.90;;;;;;5035964;28;20072;-60
2022/10/14 08:07:05;;;;;;;11.93;5.22;;;13.30;99.90;;;;;;5018503;28;20477;-58
2022/10/14 08:09:32;;;;;;;10.98;4.75;;;13.30;99.90;;;;;;5035389;28;20050;-60
2022/10/14 08:11:58;;;;;;;14.25;5.13;;;13.40;99.90;;;;;;5035499;28;20061;-55
2022/10/14 08:14:25;;;;;;;17.33;5.88;;;13.50;99.90;;;;;;5035398;28;20102;-59
2022/10/14 08:16:52;;;;;;;9.98;5.43;;;13.60;99.90;;;;;;5035525;28;20087;-56
2022/10/14 08:19:19;;;;;;;10.65;4.43;;;13.60;99.90;;;;;;5035825;28;20116;-59
2022/10/14 08:21:46;;;;;;;14.48;4.55;;;13.70;99.90;;;;;;5035734;28;20041;-58
2022/10/14 08:24:12;;;;;;;11.13;4.10;;;13.80;99.90;;;;;;5035316;28;20116;-59
2022/10/14 08:26:39;;;;;;;9.48;4.40;;;13.80;99.90;;;;;;5035138;28;20124;-58
2022/10/14 08:29:06;;;;;;;11.02;4.45;;;13.90;99.90;;;;;;5035054;28;20464;-58
2022/10/14 08:31:33;;;;;;;11.43;4.43;;;14.00;99.90;;;;;;5035411;28;20037;-57
2022/10/14 08:34:00;;;;;;;11.40;4.15;;;14.00;99.90;;;;;;5034913;28;20128;-56
2022/10/14 08:36:26;;;;;;;10.45;3.97;;;14.00;99.90;;;;;;5035407;28;20073;-55
2022/10/14 08:38:53;;;;;;;8.10;3.45;;;14.00;99.90;;;;;;5035175;28;20045;-61
2022/10/14 08:41:22;;;;;;;8.48;3.83;;;14.10;99.90;;;;;;5035146;28;20519;-60
2022/10/14 08:43:48;;;;;;;7.60;3.78;;;14.10;99.90;;;;;;5034756;28;20049;-59
2022/10/14 08:46:15;;;;;;;12.93;4.47;;;14.10;99.90;;;;;;5034935;28;20440;-59
2022/10/14 08:48:42;;;;;;;8.90;4.07;;;14.10;99.90;;;;;;5017716;28;20424;-60
2022/10/14 08:51:08;;;;;;;11.55;3.78;;;14.20;99.90;;;;;;5034686;28;20041;-61
2022/10/14 08:53:35;;;;;;;7.97;3.70;;;14.20;99.90;;;;;;5034758;28;20072;-60
2022/10/14 08:56:02;;;;;;;9.82;3.88;;;14.30;99.90;;;;;;5034567;28;20065;-59
2022/10/14 08:58:30;;;;;;;11.77;3.65;;;14.30;99.90;;;;;;5035105;28;20124;-59
2022/10/14 09:00:57;;;;;;;11.10;4.03;;;14.40;99.90;;;;;;5034945;28;20084;-59
2022/10/14 09:03:25;;;;;;;10.43;3.60;;;14.40;99.90;;;;;;5035002;28;20045;-56
2022/10/14 09:05:52;;;;;;;13.75;4.40;;;14.50;99.90;;;;;;5034817;28;20050;-59
2022/10/14 09:08:19;;;;;;;17.83;4.40;;;14.50;99.90;;;;;;5034541;28;20100;-60
2022/10/14 09:10:45;;;;;;;8.82;3.08;;;14.60;99.90;;;;;;5034836;28;20083;-60
2022/10/14 09:13:12;;;;;;;9.15;3.30;;;14.70;99.90;;;;;;5034308;28;20145;-59
2022/10/14 09:15:39;;;;;;;8.02;3.05;;;14.70;99.90;;;;;;5034729;28;20057;-60
2022/10/14 09:18:06;;;;;;;11.75;3.17;;;14.80;99.90;;;;;;5034762;28;20477;-59
2022/10/14 09:20:33;;;;;;;12.93;3.13;;;14.80;99.90;;;;;;5016383;28;20045;-57
2022/10/14 09:23:00;;;;;;;9.98;2.88;;;14.90;99.90;;;;;;5034021;28;20126;-59
2022/10/14 09:25:26;;;;;;;10.98;2.63;;;14.90;99.90;;;;;;5034341;28;20064;-58
2022/10/14 09:27:53;;;;;;;7.45;2.30;;;14.90;99.90;;;;;;5033224;28;20064;-60
2022/10/14 09:30:20;;;;;;;7.43;2.45;;;15.00;99.90;;;;;;5033685;28;20156;-60
2022/10/14 09:32:47;;;;;;;5.70;2.28;;;15.00;99.90;;;;;;5034513;28;20496;-56
2022/10/14 09:35:14;;;;;;;15.60;2.97;;;15.10;99.90;;;;;;5016446;28;20100;-59
2022/10/14 09:37:41;;;;;;;8.52;2.35;;;15.20;99.90;;;;;;5034024;28;20049;-59
2022/10/14 09:40:08;;;;;;;25.52;3.95;;;15.20;99.90;;;;;;5016097;28;20448;-58
2022/10/14 09:42:34;;;;;;;6.10;2.35;;;15.30;99.90;;;;;;5034232;28;20064;-60
2022/10/14 09:45:01;;;;;;;6.85;2.22;;;15.30;99.90;;;;;;5034287;28;20045;-60
2022/10/14 09:47:28;;;;;;;6.43;2.15;;;15.40;99.90;;;;;;5033944;28;20060;-59
2022/10/14 09:49:55;;;;;;;5.65;2.25;;;15.40;99.90;;;;;;5033835;28;20551;-60
2022/10/14 09:52:21;;;;;;;7.13;2.88;;;15.50;99.90;;;;;;5033566;28;20548;-59
2022/10/14 09:54:48;;;;;;;22.10;4.18;;;15.50;99.90;;;;;;5033904;28;20045;-58
2022/10/14 09:57:20;;;;;;;7.90;2.63;;;15.60;99.90;;;;;;5033475;28;20033;-61
2022/10/14 09:59:47;;;;;;;9.32;2.28;;;15.60;99.90;;;;;;5033428;28;20400;-61
2022/10/14 10:02:14;;;;;;;6.97;2.28;;;15.60;99.90;;;;;;5033499;28;20125;-60
2022/10/14 10:04:43;;;;;;;19.27;3.03;;;15.60;99.90;;;;;;5033420;28;20074;-60
2022/10/14 10:07:10;;;;;;;8.23;2.45;;;15.60;99.90;;;;;;5033598;28;20053;-60
2022/10/14 10:09:37;;;;;;;8.55;2.08;;;15.70;99.90;;;;;;5033675;28;20550;-58
2022/10/14 10:12:04;;;;;;;7.53;2.22;;;15.90;99.90;;;;;;5033846;28;20088;-59
2022/10/14 10:14:31;;;;;;;6.70;2.22;;;15.90;99.90;;;;;;5033205;28;20124;-60
2022/10/14 10:16:58;;;;;;;10.77;2.60;;;16.00;99.90;;;;;;5033556;28;20093;-58
2022/10/14 10:19:26;;;;;;;9.88;2.65;;;16.00;99.90;;;;;;5033707;28;20041;-60
2022/10/14 10:21:53;;;;;;;11.88;2.28;;;16.10;99.90;;;;;;5034024;28;20401;-59
2022/10/14 10:24:20;;;;;;;6.30;1.85;;;16.20;99.90;;;;;;5033624;28;20033;-60
2022/10/14 10:26:51;;;;;;;12.50;2.22;;;16.20;99.90;;;;;;5033111;28;20040;-59
2022/10/14 10:29:18;;;;;;;9.27;2.10;;;16.30;99.90;;;;;;5033215;28;20504;-59
2022/10/14 10:31:46;;;;;;;10.38;2.63;;;16.30;99.90;;;;;;5033424;28;20462;-58
2022/10/14 10:34:12;;;;;;;19.40;3.17;;;16.40;99.90;;;;;;5033260;28;20060;-58
2022/10/14 10:36:40;;;;;;;5.57;2.08;;;16.40;99.90;;;;;;5033200;28;20152;-57
2022/10/14 10:39:07;;;;;;;4.93;1.95;;;16.50;99.90;;;;;;5033495;28;20354;-57
2022/10/14 10:41:35;;;;;;;5.88;2.00;;;16.50;99.90;;;;;;5037599;28;20045;-60
2022/10/14 10:44:01;;;;;;;6.85;2.10;;;16.50;99.90;;;;;;5037300;28;20076;-59
2022/10/14 10:46:28;;;;;;;12.43;2.25;;;16.60;99.90;;;;;;5037337;28;20107;-59
2022/10/14 10:48:55;;;;;;;7.10;2.40;;;16.50;99.90;;;;;;5037048;28;20041;-59
2022/10/14 10:51:22;;;;;;;5.05;2.40;;;16.50;99.90;;;;;;5037039;28;20049;-60
2022/10/14 10:53:49;;;;;;;9.98;2.53;;;16.50;99.90;;;;;;5037381;28;20037;-58
2022/10/14 10:56:17;;;;;;;7.32;2.60;;;16.50;99.90;;;;;;5036605;28;20042;-60
2022/10/14 10:58:43;;;;;;;10.10;2.45;;;16.50;99.90;;;;;;5036907;28;20536;-59
2022/10/14 11:01:10;;;;;;;9.48;2.47;;;16.40;99.90;;;;;;5036980;28;20050;-59
2022/10/14 11:03:37;;;;;;;7.70;2.28;;;16.40;99.90;;;;;;5036518;28;20073;-62
2022/10/14 11:06:04;;;;;;;7.45;2.13;;;16.40;99.90;;;;;;5036639;28;20052;-59
2022/10/14 11:14:03;;;;;;;;;;;16.30;99.90;;;;;;5036850;28;20037;-58
2022/10/14 11:16:29;;;;;;;6.72;2.45;;;16.30;99.90;;;;;;5036404;28;19947;-58
2022/10/14 11:18:56;;;;;;;6.20;2.28;;;16.30;99.90;;;;;;5036886;28;20495;-60
2022/10/14 11:21:23;;;;;;;9.90;2.80;;;16.30;99.90;;;;;;5019043;28;20112;-60
2022/10/14 11:23:55;;;;;;;6.60;2.65;;;16.30;99.90;;;;;;5036420;28;20041;-59
2022/10/14 11:26:22;;;;;;;7.28;2.90;;;16.30;99.90;;;;;;5036440;28;20069;-59
2022/10/14 11:28:50;;;;;;;7.40;2.95;;;16.20;99.90;;;;;;5035882;28;20496;-60
2022/10/14 11:31:16;;;;;;;8.50;2.60;;;16.30;99.90;;;;;;5035983;28;20076;-57
2022/10/14 11:33:43;;;;;;;7.93;2.80;;;16.30;99.90;;;;;;5018676;28;20053;-60
2022/10/14 11:36:10;;;;;;;6.97;3.08;;;16.30;99.90;;;;;;5036185;28;20037;-57
2022/10/14 11:38:37;;;;;;;6.93;2.63;;;16.40;99.90;;;;;;5018354;28;20481;-57
2022/10/14 11:41:03;;;;;;;6.95;2.72;;;16.40;99.90;;;;;;5034450;28;20046;-59
2022/10/14 11:43:31;;;;;;;5.30;2.40;;;16.50;99.90;;;;;;5017261;28;20076;-59
2022/10/14 11:45:58;;;;;;;8.48;3.05;;;16.60;99.90;;;;;;5034963;28;20049;-59
2022/10/14 11:48:25;;;;;;;5.95;2.53;;;16.60;99.90;;;;;;5035745;28;20096;-59
2022/10/14 11:50:51;;;;;;;5.93;2.47;;;16.70;99.90;;;;;;5017133;28;20469;-58
2022/10/14 11:53:19;;;;;;;6.47;2.85;;;16.80;99.90;;;;;;5035547;28;20041;-59
2022/10/14 11:55:46;;;;;;;11.38;3.10;;;16.80;99.90;;;;;;5035676;28;20101;-60
2022/10/14 11:58:13;;;;;;;17.45;4.00;;;16.90;99.90;;;;;;5035763;28;20041;-61
2022/10/14 12:00:40;;;;;;;8.55;3.80;;;17.00;99.90;;;;;;5034473;28;20037;-59
2022/10/14 12:03:08;;;;;;;8.98;4.53;;;17.00;99.90;;;;;;5034304;28;20097;-59
2022/10/14 12:05:35;;;;;;;7.72;2.90;;;17.00;99.90;;;;;;5016553;28;20069;-61
2022/10/14 12:08:02;;;;;;;8.43;2.80;;;17.10;99.90;;;;;;5034161;28;20516;-59
2022/10/14 12:10:28;;;;;;;6.50;2.65;;;17.10;99.90;;;;;;5016482;28;20057;-61
2022/10/14 12:12:55;;;;;;;9.10;2.65;;;17.10;99.90;;;;;;5034121;28;20088;-58
2022/10/14 12:15:22;;;;;;;10.50;2.67;;;17.10;99.90;;;;;;5034735;28;20382;-57
2022/10/14 12:17:49;;;;;;;4.95;2.17;;;17.20;99.90;;;;;;5035733;28;20508;-59
2022/10/14 12:20:15;;;;;;;6.03;2.33;;;17.20;99.90;;;;;;5035434;28;20037;-59
2022/10/14 12:22:42;;;;;;;7.35;2.38;;;17.20;99.90;;;;;;5035667;28;20038;-58
2022/10/14 12:25:09;;;;;;;6.15;2.30;;;17.20;99.90;;;;;;5035197;28;20381;-60
2022/10/14 12:27:35;;;;;;;6.00;2.28;;;17.20;99.90;;;;;;5035448;28;20076;-59
2022/10/14 12:30:03;;;;;;;8.00;2.50;;;17.20;99.90;;;;;;5035010;28;20103;-58
2022/10/14 12:32:31;;;;;;;8.07;2.30;;;17.20;99.90;;;;;;5034817;28;20132;-59
2022/10/14 12:35:00;;;;;;;6.00;2.55;;;17.20;99.90;;;;;;5034868;28;20048;-59
2022/10/14 12:37:27;;;;;;;7.00;2.30;;;17.30;99.90;;;;;;5034897;28;20397;-60
2022/10/14 12:39:57;;;;;;;5.15;2.30;;;17.30;99.90;;;;;;5035308;28;20128;-58
2022/10/14 12:42:25;;;;;;;7.20;2.42;;;17.30;99.90;;;;;;5035419;28;20453;-60
2022/10/14 12:44:52;;;;;;;10.07;2.85;;;17.30;99.90;;;;;;5035098;28;20088;-59
2022/10/14 12:47:19;;;;;;;6.38;2.67;;;17.30;99.90;;;;;;5034673;28;20111;-60